Aviation Digital Data Service (ADDS)

Output produced by METARs form (1739 UTC 27 May 2017)
found at http://www.aviationweather.gov/adds/metars/
 
HKEL 271700Z VRB02KT 9999 FEW018CB SCT019 BKN080 16/15 Q1025
TAF HKEL 271100Z 2712/2812 06010KT 9999 FEW024CB SCT025 
     BECMG 2720/2723 VRB05KT FEW018CB SCT090 
     BECMG 2808/2811 06010KT FEW024CB SCT025
       
HKJK 271700Z 09010KT CAVOK 22/14 Q1021 NOSIG
TAF HKJK 271100Z 2712/2818 10010KT 9999 SCT027 
     BECMG 2718/2721 34005KT CAVOK 
     BECMG 2800/2803 21005KT 
     BECMG 2608/2611 15010KT 9999 SCT026
       
HKKI 271600Z 29004KT 9999 FEW024CB BKN080 25 /18 Q1016
TAF HKKI 271100Z 2712/2812 22010KT 9999 FEW027CB SCT090 
     BECMG 2720/2723 VRB05KT FEW018CB SCT090 
     BECMG 2808/2811 22010KT FEW027CB SCT090
       
HKML 271600Z 18010KT 9999 SCT020TCU SCT250 26/23 Q1012
HKMO 271700Z 19005KT 9999 FEW020 25/23 Q1014 NOSIG
TAF HKMO 271100Z 2712/2818 18010KT 9999 SCT023 BKN080 
     BECMG 2718/2721 18010KT FEW022 
     BECMG 2800/2806 21010KT SCT020 BKN080 
     BECMG 2809/2812 18010KT SCT024 
     BECMG 2815/2818 17005KT FEW022
       
HKNW 271700Z 09007KT 9999 BKN025 23/14